Terminal Aerodrome Forecast
Issued by NWS Corpus Christi, TX

Home | Current Version | Previous Version | Text Only | Print | Product List | Glossary On
Versions: 1 2 3 4 5 6 7 8 9 10 11 12 13 14 15 16 17 18 19 20 21 22 23 24 25 26
000
FTUS44 KCRP 051709 AAC
TAFVCT
TAF AMD
KVCT 051709Z 0517/0612 32011KT P6SM SCT009 OVC015
      TEMPO 0517/0518 BKN009 OVC015
     FM051900 33013KT P6SM BKN018 OVC050
     FM052200 31012KT P6SM SCT035 BKN060
     FM060100 24006KT P6SM FEW025 SCT100
     FM060900 25004KT 3SM BR SKC=

USA.gov is the U.S. government's official web portal to all federal, state and local government web resources and services.